Terminal Aerodrome Forecast
Issued by NWS

Home | Current Version | Previous Version | Text Only | Print | Product List | Glossary On
Versions: 1 2 3 4 5 6 7 8 9 10 11 12 13 14 15 16 17 18 19 20 21 22 23 24 25 26 27 28 29 30 31 32 33 34 35 36 37 38 39 40 41 42 43 44 45 46 47 48 49 50
000
FTUS43 KLOT 301400 AAA
TAFGYY
TAF AMD
KGYY 301400Z 3014/3112 26007KT 6SM -SHRA SCT015 OVC080
     FM301630 02012G18KT 5SM -SHRA BR SCT007 OVC015
      TEMPO 3017/3019 3SM -RA BR BKN008
     FM301900 02017G26KT 4SM -RA BR OVC007
     FM302000 02018G28KT 3SM RA BR OVC004
     FM310000 02022G32KT 6SM -SHRA BKN006 OVC012
     FM310600 01020G30KT P6SM OVC012=

USA.gov is the U.S. government's official web portal to all federal, state and local government web resources and services.